Time;durP1;ratioP1;P1;durP2;ratioP2;P2;SDS_P1;SDS_P2;PMS_P1;PMS_P2;Temp;Humidity;BMP_temperature;BMP_pressure;BME280_temperature;BME280_humidity;BME280_pressure;Samples;Min_cycle;Max_cycle;Signal;HPM_P1;HPM_P2
2021/09/29 00:00:19;;;;;;;10.47;4.97;;;11.10;99.90;;;;;;5019864;28;20210;-81
2021/09/29 00:02:45;;;;;;;7.87;4.90;;;11.10;99.90;;;;;;5036270;28;20631;-81
2021/09/29 00:05:10;;;;;;;9.57;4.70;;;11.10;99.90;;;;;;5018466;28;20179;-80
2021/09/29 00:07:36;;;;;;;9.40;5.00;;;11.10;99.90;;;;;;5032824;28;20210;-81
2021/09/29 00:10:03;;;;;;;7.80;4.60;;;11.10;99.90;;;;;;5023312;28;20189;-82
2021/09/29 00:12:29;;;;;;;9.80;4.87;;;11.10;99.90;;;;;;5039295;28;20308;-81
2021/09/29 00:14:54;;;;;;;8.80;4.87;;;11.10;99.90;;;;;;5027511;28;20190;-81
2021/09/29 00:17:20;;;;;;;10.43;4.33;;;11.10;99.90;;;;;;5023870;28;20189;-81
2021/09/29 00:19:45;;;;;;;10.33;5.27;;;11.20;99.90;;;;;;5023307;28;20209;-81
2021/09/29 00:22:11;;;;;;;9.17;5.43;;;11.10;99.90;;;;;;5039042;28;20209;-81
2021/09/29 00:24:36;;;;;;;8.07;5.03;;;11.20;99.90;;;;;;5022840;28;20178;-81
2021/09/29 00:27:02;;;;;;;9.03;5.00;;;11.10;99.90;;;;;;5023115;28;20182;-81
2021/09/29 00:29:28;;;;;;;8.10;4.40;;;11.10;99.90;;;;;;5023212;28;20181;-81
2021/09/29 00:31:53;;;;;;;10.77;4.60;;;11.20;99.90;;;;;;5039199;28;20174;-81
2021/09/29 00:34:39;;;;;;;8.13;4.90;;;11.10;99.90;;;;;;5023064;28;20235;-79
2021/09/29 00:37:05;;;;;;;6.70;4.73;;;11.20;99.90;;;;;;5042525;28;20232;-82
2021/09/29 00:39:30;;;;;;;9.90;5.13;;;11.30;99.90;;;;;;5022693;28;20213;-82
2021/09/29 00:41:56;;;;;;;8.67;4.70;;;11.30;99.90;;;;;;5039109;28;20221;-81
2021/09/29 00:44:22;;;;;;;7.80;4.83;;;11.30;99.90;;;;;;5039522;28;20174;-81
2021/09/29 00:46:48;;;;;;;9.47;4.50;;;11.30;99.90;;;;;;5021876;28;20180;-81
2021/09/29 00:49:13;;;;;;;10.00;4.77;;;11.30;99.90;;;;;;5038884;28;20181;-81
2021/09/29 00:51:39;;;;;;;6.37;4.27;;;11.40;99.90;;;;;;5038492;28;20178;-81
2021/09/29 00:54:05;;;;;;;6.70;4.27;;;11.30;99.90;;;;;;5022241;28;20237;-81
2021/09/29 00:56:30;;;;;;;7.70;4.70;;;11.40;99.90;;;;;;5022369;28;20189;-81
2021/09/29 00:58:56;;;;;;;7.73;4.93;;;11.40;99.90;;;;;;5038333;28;20284;-80
2021/09/29 01:01:21;;;;;;;8.77;4.10;;;11.40;99.90;;;;;;5022226;28;20209;-82
2021/09/29 01:03:47;;;;;;;9.43;4.60;;;11.40;99.90;;;;;;5037957;28;20589;-81
2021/09/29 01:06:18;;;;;;;6.53;4.10;;;11.40;99.90;;;;;;5038583;28;20654;-81
2021/09/29 01:08:46;;;;;;;6.43;4.53;;;11.50;99.90;;;;;;5038984;28;20182;-82
2021/09/29 01:11:27;;;;;;;7.10;4.10;;;11.50;99.90;;;;;;5039302;28;20170;-81
2021/09/29 01:14:05;;;;;;;6.80;3.90;;;11.50;99.90;;;;;;5038717;28;20205;-81
2021/09/29 01:16:31;;;;;;;10.30;4.23;;;11.50;99.90;;;;;;5038318;28;20550;-81
2021/09/29 01:18:57;;;;;;;6.77;3.73;;;11.60;99.90;;;;;;5038260;28;20198;-80
2021/09/29 01:21:23;;;;;;;7.87;3.80;;;11.60;99.90;;;;;;5022047;28;20198;-80
2021/09/29 01:24:09;;;;;;;6.43;4.23;;;11.60;99.90;;;;;;5054535;28;20201;-81
2021/09/29 01:26:36;;;;;;;7.73;4.30;;;11.60;99.90;;;;;;5037741;28;20216;-81
2021/09/29 01:29:06;;;;;;;11.67;4.13;;;11.60;99.90;;;;;;5037950;28;20588;-81
2021/09/29 01:31:33;;;;;;;6.87;3.70;;;11.60;99.90;;;;;;5022033;28;20664;-81
2021/09/29 01:33:58;;;;;;;8.97;4.00;;;11.60;99.90;;;;;;5038179;28;20250;-82
2021/09/29 01:36:24;;;;;;;9.00;4.10;;;11.60;99.90;;;;;;5022702;28;20252;-81
2021/09/29 01:38:56;;;;;;;6.93;3.70;;;11.60;99.90;;;;;;5021607;28;20650;-81
2021/09/29 01:41:27;;;;;;;7.13;3.70;;;11.60;99.90;;;;;;5039487;28;20232;-81
2021/09/29 01:43:52;;;;;;;7.13;3.47;;;11.60;99.90;;;;;;5022125;28;20213;-82
2021/09/29 01:46:19;;;;;;;9.33;4.10;;;11.70;99.90;;;;;;5021773;28;20572;-81
2021/09/29 01:49:01;;;;;;;7.67;3.50;;;11.70;99.90;;;;;;5038009;28;20197;-81
2021/09/29 01:51:27;;;;;;;8.00;3.80;;;11.70;99.90;;;;;;5038180;28;20210;-81
2021/09/29 01:53:54;;;;;;;6.17;3.80;;;11.70;99.90;;;;;;5022151;28;20224;-82
2021/09/29 01:56:19;;;;;;;7.03;4.17;;;11.70;99.90;;;;;;5024844;28;20194;-80
2021/09/29 01:58:45;;;;;;;6.90;3.57;;;11.70;99.90;;;;;;5021163;28;20259;-81
2021/09/29 02:01:10;;;;;;;6.17;4.03;;;11.70;99.90;;;;;;5055213;28;20178;-81
2021/09/29 02:03:36;;;;;;;8.73;4.10;;;11.70;99.90;;;;;;5054502;28;20210;-81
2021/09/29 02:06:02;;;;;;;8.53;3.83;;;11.60;99.90;;;;;;5021627;28;20209;-82
2021/09/29 02:08:27;;;;;;;7.10;3.47;;;11.60;99.90;;;;;;5020965;28;20210;-81
2021/09/29 02:10:53;;;;;;;8.63;3.80;;;11.60;99.90;;;;;;5021343;28;20487;-82
2021/09/29 02:13:18;;;;;;;6.80;3.63;;;11.60;99.90;;;;;;5021351;28;20206;-82
2021/09/29 02:15:44;;;;;;;8.20;3.80;;;11.60;99.90;;;;;;5040856;28;20185;-80
2021/09/29 02:18:09;;;;;;;8.10;3.83;;;11.60;99.90;;;;;;5041447;28;20174;-81
2021/09/29 02:20:35;;;;;;;6.87;3.63;;;11.60;99.90;;;;;;5041478;28;20262;-81
2021/09/29 02:23:00;;;;;;;6.73;3.60;;;11.70;99.90;;;;;;5057623;28;20201;-81
2021/09/29 02:25:26;;;;;;;7.17;3.67;;;11.70;99.90;;;;;;5041511;28;20265;-80
2021/09/29 02:27:51;;;;;;;6.40;3.90;;;11.70;99.90;;;;;;5058258;28;20193;-81
2021/09/29 02:30:17;;;;;;;8.00;3.67;;;11.70;99.90;;;;;;5024625;28;20246;-82
2021/09/29 02:32:43;;;;;;;6.23;3.10;;;11.60;99.90;;;;;;5024977;28;20198;-81
2021/09/29 02:35:09;;;;;;;6.80;3.17;;;11.60;99.90;;;;;;5025304;28;20188;-80
2021/09/29 02:37:35;;;;;;;7.97;4.10;;;11.60;99.90;;;;;;5041751;28;20185;-81
2021/09/29 02:40:00;;;;;;;6.47;3.60;;;11.50;99.90;;;;;;5041591;28;20202;-81
2021/09/29 02:42:26;;;;;;;7.90;3.80;;;11.60;99.90;;;;;;5024703;28;20217;-81
2021/09/29 02:44:51;;;;;;;7.13;3.97;;;11.60;99.90;;;;;;5025145;28;20178;-81
2021/09/29 02:47:17;;;;;;;6.97;3.60;;;11.60;99.90;;;;;;5025809;28;20179;-81
2021/09/29 02:49:42;;;;;;;8.10;3.43;;;11.70;99.90;;;;;;5041579;28;20178;-80
2021/09/29 02:52:08;;;;;;;8.40;3.33;;;11.70;99.90;;;;;;5046608;28;20177;-78
2021/09/29 02:54:33;;;;;;;7.37;3.73;;;11.70;99.90;;;;;;5045818;28;20209;-78
2021/09/29 02:56:59;;;;;;;7.03;3.70;;;11.70;99.90;;;;;;5077149;28;20174;-80
2021/09/29 02:59:25;;;;;;;10.13;4.00;;;11.70;99.90;;;;;;5045121;28;20213;-79
2021/09/29 03:01:50;;;;;;;7.30;3.97;;;11.70;99.90;;;;;;5045303;28;20701;-82
2021/09/29 03:04:16;;;;;;;6.53;3.70;;;11.70;99.90;;;;;;5040888;23;20270;-79
2021/09/29 03:06:41;;;;;;;6.33;3.63;;;11.80;99.90;;;;;;4997142;28;20207;-80
2021/09/29 03:09:07;;;;;;;5.47;3.60;;;11.70;99.90;;;;;;4997145;28;20214;-80
2021/09/29 03:11:32;;;;;;;6.87;3.67;;;11.70;99.90;;;;;;4997100;28;20183;-79
2021/09/29 03:13:58;;;;;;;5.23;3.67;;;11.70;99.90;;;;;;4997249;28;20226;-79
2021/09/29 03:16:24;;;;;;;9.17;3.20;;;11.70;99.90;;;;;;5013529;28;20262;-79
2021/09/29 03:18:50;;;;;;;7.23;3.60;;;11.70;99.90;;;;;;5013232;28;20306;-79
2021/09/29 03:21:16;;;;;;;8.53;4.23;;;11.80;99.90;;;;;;5013834;28;20172;-79
2021/09/29 03:23:42;;;;;;;7.53;3.67;;;11.80;99.90;;;;;;5013499;28;20314;-79
2021/09/29 03:26:07;;;;;;;11.83;3.93;;;11.70;99.90;;;;;;5012656;28;20666;-80
2021/09/29 03:28:33;;;;;;;8.23;3.27;;;11.70;99.90;;;;;;5013560;28;20188;-79
2021/09/29 03:30:58;;;;;;;5.83;3.87;;;11.70;99.90;;;;;;5013241;28;20270;-79
2021/09/29 03:33:24;;;;;;;7.33;3.70;;;11.70;99.90;;;;;;5013086;28;20210;-79
2021/09/29 03:35:50;;;;;;;7.37;3.90;;;11.70;99.90;;;;;;5013152;28;20187;-79
2021/09/29 03:38:15;;;;;;;5.80;3.70;;;11.60;99.90;;;;;;5013085;28;20180;-79
2021/09/29 03:40:41;;;;;;;7.10;3.37;;;11.60;99.90;;;;;;5013220;28;20190;-79
2021/09/29 03:43:06;;;;;;;5.83;3.30;;;11.60;99.90;;;;;;5012892;28;20191;-79
2021/09/29 03:45:32;;;;;;;11.50;4.13;;;11.60;99.90;;;;;;5012673;28;20655;-80
2021/09/29 03:47:57;;;;;;;9.40;3.70;;;11.60;99.90;;;;;;5012902;28;20201;-79
2021/09/29 03:50:23;;;;;;;8.47;3.93;;;11.60;99.90;;;;;;5012873;28;20211;-79
2021/09/29 03:52:49;;;;;;;6.37;3.63;;;11.60;99.90;;;;;;5013109;28;20203;-79
2021/09/29 03:55:14;;;;;;;5.97;3.67;;;11.50;99.90;;;;;;5012987;28;20674;-79
2021/09/29 03:57:40;;;;;;;6.37;3.47;;;11.50;99.90;;;;;;5012756;28;20180;-80
2021/09/29 04:00:08;;;;;;;7.50;3.70;;;11.60;99.90;;;;;;5012995;28;20229;-78
2021/09/29 04:02:33;;;;;;;6.27;3.23;;;11.50;99.90;;;;;;5029120;28;20204;-80
2021/09/29 04:04:59;;;;;;;7.47;3.70;;;11.50;99.90;;;;;;5031975;28;20202;-80
2021/09/29 04:07:25;;;;;;;8.47;3.87;;;11.50;99.90;;;;;;5029937;28;20186;-80
2021/09/29 04:09:50;;;;;;;10.00;4.07;;;11.40;99.90;;;;;;5017342;28;20274;-81
2021/09/29 04:12:16;;;;;;;9.07;3.70;;;11.50;99.90;;;;;;5012865;28;20182;-79
2021/09/29 04:14:41;;;;;;;7.27;3.73;;;11.50;99.90;;;;;;5012873;28;20269;-79
2021/09/29 04:17:07;;;;;;;8.03;3.53;;;11.50;99.90;;;;;;5012568;28;20261;-79
2021/09/29 04:19:33;;;;;;;7.67;4.10;;;11.50;99.90;;;;;;5012428;28;20338;-79
2021/09/29 04:21:58;;;;;;;6.13;3.13;;;11.50;99.90;;;;;;5012333;28;20258;-79
2021/09/29 04:24:24;;;;;;;5.73;3.40;;;11.50;99.90;;;;;;5012057;28;20207;-79
2021/09/29 04:26:49;;;;;;;6.40;3.67;;;11.50;99.90;;;;;;5012135;28;20187;-79
2021/09/29 04:29:15;;;;;;;7.20;3.70;;;11.50;99.90;;;;;;5012016;28;20183;-79
2021/09/29 04:31:41;;;;;;;7.13;4.10;;;11.50;99.90;;;;;;5012208;28;20238;-79
2021/09/29 04:34:06;;;;;;;5.57;3.47;;;11.50;99.90;;;;;;5012023;28;20203;-79
2021/09/29 04:36:32;;;;;;;5.67;3.67;;;11.50;99.90;;;;;;5011999;28;20183;-79
2021/09/29 04:38:57;;;;;;;6.27;3.90;;;11.40;99.90;;;;;;5011881;28;20257;-79
2021/09/29 04:41:23;;;;;;;10.67;4.03;;;11.40;99.90;;;;;;5011836;28;20669;-79
2021/09/29 04:43:49;;;;;;;7.10;3.50;;;11.40;99.90;;;;;;5011789;28;20195;-79
2021/09/29 04:46:15;;;;;;;7.33;3.87;;;11.40;99.90;;;;;;4995958;28;20278;-79
2021/09/29 04:48:55;;;;;;;8.10;3.57;;;11.50;99.90;;;;;;5023171;28;20190;-82
2021/09/29 04:51:20;;;;;;;9.70;3.73;;;11.40;99.90;;;;;;5026485;28;20171;-80
2021/09/29 04:54:24;;;;;;;7.37;3.67;;;11.40;99.90;;;;;;5019396;28;20257;-80
2021/09/29 04:57:24;;;;;;;7.83;3.57;;;11.40;99.90;;;;;;5039118;28;20171;-80
2021/09/29 05:06:29;;;;;;;7.73;3.50;;;11.40;99.90;;;;;;5058268;28;20210;-84
2021/09/29 05:08:54;;;;;;;6.63;3.90;;;11.40;99.90;;;;;;5025115;28;20178;-83
2021/09/29 05:11:22;;;;;;;6.20;3.63;;;11.40;99.90;;;;;;5024147;28;20174;-85
2021/09/29 05:13:48;;;;;;;8.00;3.97;;;11.30;99.90;;;;;;5048220;28;20202;-86
2021/09/29 05:16:14;;;;;;;6.40;4.00;;;11.30;99.90;;;;;;5021116;28;20238;-86
2021/09/29 05:18:40;;;;;;;7.00;4.23;;;11.40;99.90;;;;;;5020981;28;20206;-86
2021/09/29 05:21:05;;;;;;;8.17;3.40;;;11.40;99.90;;;;;;5021984;28;20227;-86
2021/09/29 05:23:31;;;;;;;9.37;4.40;;;11.40;99.90;;;;;;5038817;28;20656;-83
2021/09/29 05:25:57;;;;;;;7.67;3.73;;;11.40;99.90;;;;;;5007742;28;20174;-86
2021/09/29 05:28:25;;;;;;;7.83;4.00;;;11.40;99.90;;;;;;5032511;28;20200;-84
2021/09/29 05:30:51;;;;;;;7.60;4.07;;;11.40;99.90;;;;;;5030894;28;20177;-86
2021/09/29 05:33:16;;;;;;;7.63;4.27;;;11.40;99.90;;;;;;5033608;28;20202;-85
2021/09/29 05:35:42;;;;;;;7.00;3.93;;;11.40;99.90;;;;;;5006345;28;20171;-85
2021/09/29 05:38:08;;;;;;;8.47;4.10;;;11.30;99.90;;;;;;5017566;28;20167;-85
2021/09/29 05:40:33;;;;;;;7.20;4.13;;;11.40;99.90;;;;;;5023709;28;20554;-83
2021/09/29 05:42:59;;;;;;;10.63;4.20;;;11.40;99.90;;;;;;5008938;28;20190;-83
2021/09/29 05:45:25;;;;;;;7.23;3.90;;;11.40;99.90;;;;;;5026321;28;20254;-85
2021/09/29 05:47:50;;;;;;;7.50;4.30;;;11.30;99.90;;;;;;5007662;28;20179;-84
2021/09/29 05:50:16;;;;;;;8.07;4.50;;;11.30;99.90;;;;;;5014115;28;20188;-83
2021/09/29 05:52:41;;;;;;;7.13;4.20;;;11.30;99.90;;;;;;5020684;28;20191;-84
2021/09/29 05:55:07;;;;;;;9.53;4.37;;;11.30;99.90;;;;;;5004449;28;20699;-80
2021/09/29 05:57:33;;;;;;;5.73;4.00;;;11.30;99.90;;;;;;5016237;28;20546;-82
2021/09/29 05:59:58;;;;;;;7.03;3.90;;;11.30;99.90;;;;;;5023285;28;20214;-83
2021/09/29 06:02:24;;;;;;;10.57;4.07;;;11.30;99.90;;;;;;5004037;28;20209;-83
2021/09/29 06:04:49;;;;;;;7.23;4.30;;;11.30;99.90;;;;;;5020798;28;20189;-83
2021/09/29 06:07:16;;;;;;;8.57;4.20;;;11.30;99.90;;;;;;5022254;28;20171;-83
2021/09/29 06:09:42;;;;;;;7.87;4.30;;;11.30;99.90;;;;;;5021310;28;20555;-85
2021/09/29 06:12:08;;;;;;;7.20;3.93;;;11.30;99.90;;;;;;5021561;28;20175;-80
2021/09/29 06:14:34;;;;;;;6.67;3.93;;;11.30;99.90;;;;;;5006461;28;20206;-80
2021/09/29 06:17:12;;;;;;;7.70;4.10;;;11.40;99.90;;;;;;5006449;28;20667;-79
2021/09/29 06:19:39;;;;;;;7.90;4.10;;;11.40;99.90;;;;;;5007778;28;20203;-81
2021/09/29 06:22:07;;;;;;;9.63;4.37;;;11.40;99.90;;;;;;5004764;28;20183;-79
2021/09/29 06:24:33;;;;;;;8.57;3.87;;;11.40;99.90;;;;;;5004953;28;20329;-79
2021/09/29 06:26:59;;;;;;;8.43;4.20;;;11.40;99.90;;;;;;5021050;28;20648;-79
2021/09/29 06:29:24;;;;;;;7.70;4.40;;;11.40;99.90;;;;;;5020513;28;20183;-79
2021/09/29 06:31:52;;;;;;;7.07;4.40;;;11.40;99.90;;;;;;5022307;28;20219;-79
2021/09/29 06:34:18;;;;;;;5.57;3.83;;;11.50;99.90;;;;;;5023181;28;20199;-82
2021/09/29 06:36:43;;;;;;;7.77;3.97;;;11.50;99.90;;;;;;5006822;28;20289;-81
2021/09/29 06:39:09;;;;;;;9.97;4.33;;;11.60;99.90;;;;;;5003213;28;20207;-83
2021/09/29 06:41:35;;;;;;;6.10;4.40;;;11.70;99.90;;;;;;5002303;28;20179;-79
2021/09/29 06:44:00;;;;;;;6.73;4.33;;;11.80;99.90;;;;;;5000824;28;20190;-77
2021/09/29 06:46:26;;;;;;;6.13;3.83;;;11.90;99.90;;;;;;5017785;28;20629;-76
2021/09/29 06:48:51;;;;;;;8.60;4.50;;;12.10;99.90;;;;;;5018711;28;20788;-78
2021/09/29 06:51:17;;;;;;;11.50;4.47;;;12.30;99.90;;;;;;5002732;28;20183;-78
2021/09/29 06:53:42;;;;;;;7.40;4.27;;;12.40;99.90;;;;;;5018364;28;20202;-80
2021/09/29 06:56:08;;;;;;;10.07;4.20;;;12.60;99.90;;;;;;5018843;28;20187;-78
2021/09/29 06:58:34;;;;;;;6.97;4.00;;;12.80;99.90;;;;;;5002040;28;20214;-82
2021/09/29 07:01:00;;;;;;;7.27;3.40;;;13.10;99.90;;;;;;5000004;28;20171;-78
2021/09/29 07:03:25;;;;;;;10.67;4.07;;;13.40;99.90;;;;;;4998724;28;20692;-78
2021/09/29 07:05:51;;;;;;;7.57;3.80;;;13.60;99.90;;;;;;5000198;28;20213;-78
2021/09/29 07:08:16;;;;;;;7.43;3.70;;;13.70;99.90;;;;;;5000157;28;20186;-81
2021/09/29 07:10:42;;;;;;;8.07;3.77;;;13.90;99.90;;;;;;5033116;28;20183;-78
2021/09/29 07:13:10;;;;;;;9.07;3.80;;;14.00;99.90;;;;;;5016491;28;20187;-78
2021/09/29 07:15:35;;;;;;;6.27;3.50;;;14.10;99.90;;;;;;5016461;28;20190;-79
2021/09/29 07:18:01;;;;;;;5.83;3.33;;;14.20;99.90;;;;;;5016175;28;20167;-80
2021/09/29 07:20:27;;;;;;;8.70;3.50;;;14.30;99.90;;;;;;5000037;28;20257;-78
2021/09/29 07:22:53;;;;;;;9.37;3.80;;;14.50;99.90;;;;;;4999788;28;20203;-79
2021/09/29 07:25:18;;;;;;;5.53;3.20;;;14.70;99.90;;;;;;4999866;28;20201;-78
2021/09/29 07:27:44;;;;;;;5.83;3.07;;;14.90;99.90;;;;;;4999733;28;20705;-78
2021/09/29 07:30:10;;;;;;;6.73;2.93;;;15.00;99.90;;;;;;4999888;28;20228;-78
2021/09/29 07:32:35;;;;;;;5.10;3.00;;;15.10;99.90;;;;;;5015907;28;20708;-78
2021/09/29 07:35:01;;;;;;;5.80;2.77;;;15.40;99.90;;;;;;5016022;28;20179;-77
2021/09/29 07:37:26;;;;;;;4.77;2.67;;;15.50;99.90;;;;;;5032467;28;20548;-79
2021/09/29 07:39:52;;;;;;;5.93;2.80;;;15.60;99.90;;;;;;5015698;28;20356;-79
2021/09/29 07:42:18;;;;;;;7.50;3.20;;;15.70;99.90;;;;;;5015630;28;20171;-78
2021/09/29 07:44:43;;;;;;;3.13;2.13;;;15.70;99.90;;;;;;5015919;28;20270;-79
2021/09/29 07:47:09;;;;;;;5.33;2.50;;;15.60;99.90;;;;;;4999576;28;20533;-78
2021/09/29 07:49:35;;;;;;;4.17;2.70;;;15.40;99.90;;;;;;4999352;28;20190;-78
2021/09/29 07:52:00;;;;;;;5.23;2.60;;;15.20;99.90;;;;;;5015691;28;20668;-78
2021/09/29 07:54:26;;;;;;;7.37;2.70;;;15.00;99.90;;;;;;4999031;28;20630;-80
2021/09/29 07:56:53;;;;;;;9.33;3.03;;;14.90;99.90;;;;;;4999418;28;20636;-79
2021/09/29 07:59:18;;;;;;;7.33;2.83;;;14.80;99.90;;;;;;4999148;28;20233;-78
2021/09/29 08:01:44;;;;;;;5.10;2.60;;;14.80;99.90;;;;;;4999031;28;20187;-80
2021/09/29 08:04:10;;;;;;;7.13;2.80;;;14.60;99.90;;;;;;4998930;28;20216;-78
2021/09/29 08:06:35;;;;;;;4.97;2.63;;;14.50;99.90;;;;;;4999317;28;20209;-78
2021/09/29 08:09:02;;;;;;;7.43;4.07;;;14.50;99.90;;;;;;4999222;28;20617;-78
2021/09/29 08:11:28;;;;;;;5.30;2.70;;;14.30;99.90;;;;;;4999226;28;20442;-78
2021/09/29 08:13:53;;;;;;;7.93;3.00;;;14.20;99.90;;;;;;5014698;28;20707;-79
2021/09/29 08:16:19;;;;;;;9.33;2.70;;;14.10;99.90;;;;;;5015376;28;20229;-79
2021/09/29 08:18:44;;;;;;;10.47;3.00;;;14.10;99.90;;;;;;5015192;28;20199;-79
2021/09/29 08:21:16;;;;;;;9.23;2.60;;;14.20;99.90;;;;;;4998879;28;20554;-78
2021/09/29 08:23:44;;;;;;;7.67;3.00;;;14.20;99.90;;;;;;5016164;28;20222;-78
2021/09/29 08:31:44;;;;;;;4.37;2.50;;;14.20;99.90;;;;;;5015025;28;20262;-78
2021/09/29 08:39:36;;;;;;;10.63;3.40;;;14.00;99.90;;;;;;5015127;28;20209;-78
2021/09/29 08:42:25;;;;;;;7.27;2.90;;;14.00;99.90;;;;;;5003996;28;20641;-78
2021/09/29 09:16:32;;;;;;;4.20;2.17;;;14.90;99.90;;;;;;5023443;28;20178;-79
2021/09/29 09:19:09;;;;;;;5.07;2.13;;;14.90;99.90;;;;;;5020752;28;20816;-78
2021/09/29 09:21:37;;;;;;;8.67;2.10;;;14.80;99.90;;;;;;5021353;28;20219;-79
2021/09/29 09:24:16;;;;;;;4.83;2.13;;;14.80;99.90;;;;;;5003663;28;20693;-79
2021/09/29 09:26:41;;;;;;;6.17;2.00;;;14.70;99.90;;;;;;5006548;28;20174;-78
2021/09/29 09:29:11;;;;;;;4.33;1.80;;;14.70;99.90;;;;;;5021384;28;20177;-80
2021/09/29 09:31:37;;;;;;;6.00;2.17;;;14.70;99.90;;;;;;5021036;28;20187;-79
2021/09/29 09:34:04;;;;;;;5.47;2.00;;;14.70;99.90;;;;;;5003285;28;20290;-80
2021/09/29 09:36:34;;;;;;;4.77;1.80;;;14.70;99.90;;;;;;5004355;28;20206;-78
2021/09/29 09:39:06;;;;;;;4.60;2.10;;;14.70;99.90;;;;;;5021175;28;20245;-79
2021/09/29 09:41:31;;;;;;;4.00;1.70;;;14.70;99.90;;;;;;5005846;28;20179;-80
2021/09/29 09:44:02;;;;;;;4.83;2.10;;;14.70;99.90;;;;;;5019719;28;20201;-79
2021/09/29 09:46:28;;;;;;;4.90;2.30;;;14.70;99.90;;;;;;5020492;28;20190;-80
2021/09/29 09:49:07;;;;;;;6.30;2.10;;;14.70;99.90;;;;;;5003212;28;20175;-80
2021/09/29 09:51:45;;;;;;;5.87;1.70;;;14.70;99.90;;;;;;5021554;28;20167;-80
2021/09/29 09:54:11;;;;;;;5.77;2.00;;;14.60;99.90;;;;;;5022923;28;20285;-80
2021/09/29 09:56:37;;;;;;;5.90;2.70;;;14.40;99.90;;;;;;5022443;28;20199;-79
2021/09/29 09:59:06;;;;;;;5.57;2.50;;;14.40;99.90;;;;;;5005680;28;20225;-78
2021/09/29 10:01:31;;;;;;;5.50;2.27;;;14.30;99.90;;;;;;5005467;28;20729;-78
2021/09/29 10:04:07;;;;;;;6.13;1.90;;;14.30;99.90;;;;;;5006260;28;20227;-80
2021/09/29 10:06:33;;;;;;;5.80;2.27;;;14.30;99.90;;;;;;5006812;28;20183;-79
2021/09/29 10:09:02;;;;;;;3.63;2.10;;;14.30;99.90;;;;;;5003285;28;20273;-80
2021/09/29 10:11:34;;;;;;;4.53;2.20;;;14.30;99.90;;;;;;5005618;28;20265;-79
2021/09/29 10:14:29;;;;;;;6.57;2.30;;;14.30;99.90;;;;;;5021967;28;20191;-79
2021/09/29 10:28:20;;;;;;;6.33;2.73;;;13.90;99.90;;;;;;5022441;28;20554;-80
2021/09/29 10:33:33;;;;;;;4.83;2.70;;;13.80;99.90;;;;;;5038013;28;20201;-80
2021/09/29 10:41:50;;;;;;;6.97;2.50;;;13.50;99.90;;;;;;5027732;28;20182;-81
2021/09/29 10:44:31;;;;;;;9.00;3.07;;;13.40;99.90;;;;;;5011614;28;20727;-81
2021/09/29 11:03:50;;;;;;;4.60;2.30;;;12.90;99.90;;;;;;5024571;28;20739;-82
2021/09/29 11:10:09;;;;;;;4.23;2.03;;;12.70;99.90;;;;;;5040688;28;20190;-81
2021/09/29 11:12:07;;;;;;;4.33;2.00;;;12.60;99.90;;;;;;5016256;28;20187;-82
2021/09/29 11:30:36;;;;;;;4.83;3.07;;;12.70;99.90;;;;;;5022106;28;20216;-82
2021/09/29 11:38:26;;;;;;;5.47;3.60;;;12.80;99.90;;;;;;5023824;28;20187;-82
2021/09/29 12:11:17;;;;;;;2.60;2.07;;;12.80;99.90;;;;;;5022846;28;20183;-82
2021/09/29 12:13:50;;;;;;;2.57;2.10;;;12.90;99.90;;;;;;5022078;28;20199;-82
2021/09/29 12:16:29;;;;;;;2.83;2.37;;;12.90;99.90;;;;;;5006750;28;20183;-82
2021/09/29 12:19:02;;;;;;;2.60;2.17;;;12.90;99.90;;;;;;5020840;28;20614;-82
2021/09/29 12:21:35;;;;;;;3.53;2.40;;;12.90;99.90;;;;;;5005595;28;20182;-82
2021/09/29 12:24:00;;;;;;;3.50;2.50;;;12.80;99.90;;;;;;5004726;28;20669;-81
2021/09/29 12:26:28;;;;;;;2.30;2.10;;;12.80;99.90;;;;;;5020463;28;20242;-81
2021/09/29 12:29:14;;;;;;;3.87;2.27;;;12.80;99.90;;;;;;5020773;28;20197;-79
2021/09/29 12:34:30;;;;;;;2.97;2.73;;;12.70;99.90;;;;;;5022103;28;20605;-82
2021/09/29 12:36:56;;;;;;;3.10;2.60;;;12.80;99.90;;;;;;5008930;28;20190;-82
2021/09/29 12:39:22;;;;;;;3.23;2.50;;;12.90;99.90;;;;;;5003899;28;20211;-82
2021/09/29 12:41:53;;;;;;;3.20;2.70;;;13.00;99.90;;;;;;5020074;28;20174;-82
2021/09/29 12:44:19;;;;;;;3.93;2.93;;;13.10;99.90;;;;;;5003765;28;20225;-82
2021/09/29 12:46:50;;;;;;;2.53;2.33;;;13.20;99.90;;;;;;5002728;28;20650;-78
2021/09/29 12:49:20;;;;;;;3.17;2.70;;;13.20;99.90;;;;;;5032538;28;20181;-80
2021/09/29 12:51:50;;;;;;;3.83;2.67;;;13.20;99.90;;;;;;5002860;28;20175;-81
2021/09/29 12:54:20;;;;;;;3.63;2.47;;;13.10;99.90;;;;;;5002797;28;20207;-79
2021/09/29 12:56:45;;;;;;;2.43;2.17;;;13.00;99.90;;;;;;5018741;28;20183;-81
2021/09/29 12:59:11;;;;;;;2.30;2.10;;;13.00;99.90;;;;;;5000190;28;20249;-79
2021/09/29 13:01:36;;;;;;;2.57;2.10;;;13.10;99.90;;;;;;4998667;28;20702;-78
2021/09/29 13:04:02;;;;;;;2.17;1.87;;;13.00;99.90;;;;;;4998441;28;20214;-77
2021/09/29 13:06:28;;;;;;;1.93;1.73;;;13.00;99.90;;;;;;5008594;28;20196;-81
2021/09/29 13:08:53;;;;;;;2.20;1.90;;;13.00;99.90;;;;;;5022450;28;20181;-79
2021/09/29 13:11:19;;;;;;;3.00;2.20;;;12.90;99.90;;;;;;5021859;28;20175;-79
2021/09/29 13:13:45;;;;;;;2.17;1.67;;;12.90;99.90;;;;;;5054919;28;20198;-79
2021/09/29 13:16:10;;;;;;;1.60;1.40;;;13.00;99.90;;;;;;5021218;28;20178;-78
2021/09/29 13:24:10;;;;;;;1.07;0.97;;;13.00;99.90;;;;;;5030251;28;20229;-82
2021/09/29 13:26:54;;;;;;;1.70;0.90;;;13.00;99.90;;;;;;5039836;28;20166;-82
2021/09/29 13:35:27;;;;;;;1.10;0.80;;;13.10;99.90;;;;;;5042380;28;20185;-82
2021/09/29 13:37:52;;;;;;;2.07;0.70;;;13.00;99.90;;;;;;5043471;28;20174;-83
2021/09/29 13:40:18;;;;;;;2.20;0.80;;;13.00;99.90;;;;;;5019780;28;20696;-84
2021/09/29 13:42:43;;;;;;;4.43;0.73;;;13.00;99.90;;;;;;5036934;28;20205;-82
2021/09/29 13:45:10;;;;;;;1.10;0.70;;;13.00;99.90;;;;;;5021001;28;20182;-84
2021/09/29 13:47:36;;;;;;;0.77;0.73;;;13.00;99.90;;;;;;5039732;28;20190;-84
2021/09/29 13:50:02;;;;;;;3.70;0.70;;;13.00;99.90;;;;;;5042971;28;20244;-83
2021/09/29 13:52:28;;;;;;;1.13;0.90;;;12.90;99.90;;;;;;5024282;28;20633;-82
2021/09/29 13:54:58;;;;;;;0.80;0.70;;;12.90;99.90;;;;;;5041966;28;20174;-84
2021/09/29 14:29:20;;;;;;;1.53;1.23;;;12.30;99.90;;;;;;5039915;28;20547;-86
2021/09/29 14:34:14;;;;;;;1.50;1.17;;;12.20;99.90;;;;;;5035077;28;20677;-84
2021/09/29 14:36:40;;;;;;;1.73;1.30;;;12.20;99.90;;;;;;5030968;28;20218;-84
2021/09/29 14:39:05;;;;;;;3.33;1.43;;;12.20;99.90;;;;;;5034904;28;20225;-85
2021/09/29 14:41:31;;;;;;;2.47;1.70;;;12.10;99.90;;;;;;5038214;28;20236;-83
2021/09/29 14:43:57;;;;;;;2.40;1.47;;;12.00;99.90;;;;;;5019161;28;20198;-85
2021/09/29 14:46:22;;;;;;;2.20;1.60;;;11.90;99.90;;;;;;5028973;28;20185;-85
2021/09/29 14:48:48;;;;;;;2.70;1.80;;;11.90;99.90;;;;;;5046115;28;20178;-82
2021/09/29 14:51:13;;;;;;;2.17;1.67;;;11.80;99.90;;;;;;5018965;28;20658;-83
2021/09/29 14:53:39;;;;;;;2.73;1.57;;;11.90;99.90;;;;;;5023908;28;20200;-83
2021/09/29 14:56:06;;;;;;;3.43;2.10;;;11.90;99.90;;;;;;5020955;28;20185;-84
2021/09/29 14:58:32;;;;;;;2.17;1.83;;;12.00;99.90;;;;;;5044972;28;20177;-84
2021/09/29 15:00:58;;;;;;;3.77;2.10;;;12.00;99.90;;;;;;5031161;28;20170;-88
2021/09/29 15:03:24;;;;;;;2.43;1.60;;;12.10;99.90;;;;;;5051246;23;20218;-75
2021/09/29 15:05:50;;;;;;;1.83;1.10;;;12.10;99.90;;;;;;5073449;28;20691;-76
2021/09/29 15:08:16;;;;;;;3.03;1.33;;;12.10;99.90;;;;;;5056753;28;20298;-73
2021/09/29 15:10:42;;;;;;;2.23;1.40;;;12.10;99.90;;;;;;5056458;28;20255;-73
2021/09/29 15:13:11;;;;;;;1.47;1.20;;;12.10;99.90;;;;;;5072977;28;20202;-73
2021/09/29 15:15:45;;;;;;;3.03;1.30;;;12.00;99.90;;;;;;5056706;28;20179;-73
2021/09/29 15:18:14;;;;;;;2.77;1.30;;;12.00;99.90;;;;;;5057371;28;20682;-73
2021/09/29 15:20:59;;;;;;;2.57;1.53;;;12.00;99.90;;;;;;5074153;28;20221;-76
2021/09/29 15:48:01;;;;;;;2.67;1.50;;;12.10;99.90;;;;;;5076108;28;20165;-80
2021/09/29 16:01:51;;;;;;;2.87;1.27;;;12.10;99.90;;;;;;5052805;28;20707;-73
2021/09/29 16:04:03;;;;;;;1.97;1.17;;;12.20;99.90;;;;;;5046890;28;20304;-73
2021/09/29 16:06:39;;;;;;;2.13;1.00;;;12.10;99.90;;;;;;5052937;28;20166;-77
2021/09/29 16:30:31;;;;;;;3.37;0.90;;;10.20;99.90;;;;;;5053182;28;20552;-73
2021/09/29 16:35:29;;;;;;;3.10;0.90;;;9.60;99.90;;;;;;5053914;28;20196;-74
2021/09/29 16:37:56;;;;;;;2.93;0.93;;;9.50;99.90;;;;;;5035049;28;20225;-70
2021/09/29 16:40:22;;;;;;;3.03;0.70;;;9.40;99.90;;;;;;5054203;28;20277;-71
2021/09/29 16:42:51;;;;;;;2.33;0.83;;;9.40;99.90;;;;;;5051634;28;20540;-71
2021/09/29 16:45:19;;;;;;;1.33;0.80;;;9.40;99.90;;;;;;5035387;28;20179;-71
2021/09/29 16:47:47;;;;;;;2.07;0.80;;;9.40;99.90;;;;;;5051286;28;20247;-71
2021/09/29 16:50:13;;;;;;;3.40;0.70;;;9.30;99.90;;;;;;5051503;28;20730;-71
2021/09/29 16:52:46;;;;;;;6.27;1.00;;;9.40;99.90;;;;;;5052700;28;20204;-71
2021/09/29 16:55:15;;;;;;;2.57;1.10;;;9.40;99.90;;;;;;5035939;28;20212;-71